sensor_id;sensor_type;location;lat;lon;timestamp;P1;durP1;ratioP1;P2;durP2;ratioP2
75628;SDS011;64213;46.452;16.994;2023-04-25T00:01:28;7.00;;;1.60;;
75628;SDS011;64213;46.452;16.994;2023-04-25T00:04:30;6.68;;;1.65;;
75628;SDS011;64213;46.452;16.994;2023-04-25T00:07:35;7.40;;;1.35;;
75628;SDS011;64213;46.452;16.994;2023-04-25T00:10:37;4.30;;;0.90;;
75628;SDS011;64213;46.452;16.994;2023-04-25T00:13:39;4.93;;;1.27;;
75628;SDS011;64213;46.452;16.994;2023-04-25T00:16:43;5.63;;;1.23;;
75628;SDS011;64213;46.452;16.994;2023-04-25T00:19:46;5.10;;;1.00;;
75628;SDS011;64213;46.452;16.994;2023-04-25T00:22:49;6.40;;;1.48;;
75628;SDS011;64213;46.452;16.994;2023-04-25T00:25:51;5.70;;;1.33;;
75628;SDS011;64213;46.452;16.994;2023-04-25T00:28:53;7.28;;;1.80;;
75628;SDS011;64213;46.452;16.994;2023-04-25T00:31:55;6.90;;;1.37;;
75628;SDS011;64213;46.452;16.994;2023-04-25T00:34:57;6.40;;;1.70;;
75628;SDS011;64213;46.452;16.994;2023-04-25T00:37:59;6.55;;;1.40;;
75628;SDS011;64213;46.452;16.994;2023-04-25T00:41:02;6.00;;;1.62;;
75628;SDS011;64213;46.452;16.994;2023-04-25T00:44:04;6.37;;;1.52;;
75628;SDS011;64213;46.452;16.994;2023-04-25T00:47:08;4.60;;;1.00;;
75628;SDS011;64213;46.452;16.994;2023-04-25T00:50:13;5.40;;;1.35;;
75628;SDS011;64213;46.452;16.994;2023-04-25T00:53:15;7.07;;;1.42;;
75628;SDS011;64213;46.452;16.994;2023-04-25T00:56:17;6.87;;;1.40;;
75628;SDS011;64213;46.452;16.994;2023-04-25T00:59:19;5.85;;;1.30;;
75628;SDS011;64213;46.452;16.994;2023-04-25T01:02:22;5.37;;;1.03;;
75628;SDS011;64213;46.452;16.994;2023-04-25T01:05:24;4.15;;;0.93;;
75628;SDS011;64213;46.452;16.994;2023-04-25T01:08:26;6.18;;;1.27;;
75628;SDS011;64213;46.452;16.994;2023-04-25T01:11:28;5.60;;;1.30;;
75628;SDS011;64213;46.452;16.994;2023-04-25T01:14:31;6.82;;;1.35;;
75628;SDS011;64213;46.452;16.994;2023-04-25T01:17:34;6.23;;;1.47;;
75628;SDS011;64213;46.452;16.994;2023-04-25T01:20:37;6.82;;;1.40;;
75628;SDS011;64213;46.452;16.994;2023-04-25T01:23:40;5.85;;;1.60;;
75628;SDS011;64213;46.452;16.994;2023-04-25T01:26:43;7.45;;;1.92;;
75628;SDS011;64213;46.452;16.994;2023-04-25T01:29:51;6.80;;;1.90;;
75628;SDS011;64213;46.452;16.994;2023-04-25T01:32:56;6.77;;;1.70;;
75628;SDS011;64213;46.452;16.994;2023-04-25T01:35:59;7.65;;;1.90;;
75628;SDS011;64213;46.452;16.994;2023-04-25T01:39:01;7.37;;;1.92;;
75628;SDS011;64213;46.452;16.994;2023-04-25T01:42:03;8.13;;;2.28;;
75628;SDS011;64213;46.452;16.994;2023-04-25T01:45:06;6.62;;;2.00;;
75628;SDS011;64213;46.452;16.994;2023-04-25T01:48:10;7.70;;;2.53;;
75628;SDS011;64213;46.452;16.994;2023-04-25T01:51:13;8.27;;;2.78;;
75628;SDS011;64213;46.452;16.994;2023-04-25T01:54:20;8.20;;;2.70;;
75628;SDS011;64213;46.452;16.994;2023-04-25T01:57:22;9.80;;;2.60;;
75628;SDS011;64213;46.452;16.994;2023-04-25T02:00:24;8.95;;;2.90;;
75628;SDS011;64213;46.452;16.994;2023-04-25T02:03:26;9.40;;;2.80;;
75628;SDS011;64213;46.452;16.994;2023-04-25T02:06:28;8.73;;;3.00;;
75628;SDS011;64213;46.452;16.994;2023-04-25T02:09:30;6.82;;;1.77;;
75628;SDS011;64213;46.452;16.994;2023-04-25T02:12:32;10.60;;;2.83;;
75628;SDS011;64213;46.452;16.994;2023-04-25T02:15:34;7.28;;;2.30;;
75628;SDS011;64213;46.452;16.994;2023-04-25T02:18:37;4.67;;;0.97;;
75628;SDS011;64213;46.452;16.994;2023-04-25T02:21:39;3.58;;;0.73;;
75628;SDS011;64213;46.452;16.994;2023-04-25T02:24:41;7.07;;;1.20;;
75628;SDS011;64213;46.452;16.994;2023-04-25T02:27:43;4.85;;;0.75;;
75628;SDS011;64213;46.452;16.994;2023-04-25T02:30:45;3.95;;;1.05;;
75628;SDS011;64213;46.452;16.994;2023-04-25T02:33:47;5.07;;;1.07;;
75628;SDS011;64213;46.452;16.994;2023-04-25T02:36:50;4.93;;;0.93;;
75628;SDS011;64213;46.452;16.994;2023-04-25T02:39:52;7.40;;;1.00;;
75628;SDS011;64213;46.452;16.994;2023-04-25T02:42:54;6.25;;;1.15;;
75628;SDS011;64213;46.452;16.994;2023-04-25T02:45:56;6.40;;;1.15;;
75628;SDS011;64213;46.452;16.994;2023-04-25T02:48:58;4.37;;;0.77;;
75628;SDS011;64213;46.452;16.994;2023-04-25T02:52:01;4.37;;;0.80;;
75628;SDS011;64213;46.452;16.994;2023-04-25T02:55:03;7.55;;;1.10;;
75628;SDS011;64213;46.452;16.994;2023-04-25T02:58:05;5.43;;;0.98;;
75628;SDS011;64213;46.452;16.994;2023-04-25T03:01:07;4.78;;;0.95;;
75628;SDS011;64213;46.452;16.994;2023-04-25T03:04:09;5.93;;;1.37;;
75628;SDS011;64213;46.452;16.994;2023-04-25T03:07:11;6.28;;;1.52;;
75628;SDS011;64213;46.452;16.994;2023-04-25T03:10:13;7.03;;;1.85;;
75628;SDS011;64213;46.452;16.994;2023-04-25T03:13:16;9.13;;;2.62;;
75628;SDS011;64213;46.452;16.994;2023-04-25T03:16:18;8.55;;;2.08;;
75628;SDS011;64213;46.452;16.994;2023-04-25T03:19:20;7.27;;;1.80;;
75628;SDS011;64213;46.452;16.994;2023-04-25T03:22:22;7.50;;;2.20;;
75628;SDS011;64213;46.452;16.994;2023-04-25T03:25:24;9.07;;;3.10;;
75628;SDS011;64213;46.452;16.994;2023-04-25T03:28:27;7.85;;;2.47;;
75628;SDS011;64213;46.452;16.994;2023-04-25T03:31:29;8.45;;;2.22;;
75628;SDS011;64213;46.452;16.994;2023-04-25T03:34:32;6.97;;;2.20;;
75628;SDS011;64213;46.452;16.994;2023-04-25T03:37:34;7.05;;;2.17;;
75628;SDS011;64213;46.452;16.994;2023-04-25T03:40:36;7.30;;;1.92;;
75628;SDS011;64213;46.452;16.994;2023-04-25T03:43:38;7.95;;;2.10;;
75628;SDS011;64213;46.452;16.994;2023-04-25T03:46:40;7.20;;;1.90;;
75628;SDS011;64213;46.452;16.994;2023-04-25T03:49:42;7.77;;;2.40;;
75628;SDS011;64213;46.452;16.994;2023-04-25T03:52:44;7.65;;;2.72;;
75628;SDS011;64213;46.452;16.994;2023-04-25T03:55:46;9.45;;;2.83;;
75628;SDS011;64213;46.452;16.994;2023-04-25T03:58:48;8.32;;;2.87;;
75628;SDS011;64213;46.452;16.994;2023-04-25T04:01:50;9.60;;;3.08;;
75628;SDS011;64213;46.452;16.994;2023-04-25T04:04:52;8.70;;;3.10;;
75628;SDS011;64213;46.452;16.994;2023-04-25T04:07:55;11.35;;;3.22;;
75628;SDS011;64213;46.452;16.994;2023-04-25T04:10:57;9.73;;;3.70;;
75628;SDS011;64213;46.452;16.994;2023-04-25T04:14:00;9.65;;;3.47;;
75628;SDS011;64213;46.452;16.994;2023-04-25T04:17:02;10.05;;;3.42;;
75628;SDS011;64213;46.452;16.994;2023-04-25T04:20:04;9.30;;;3.50;;
75628;SDS011;64213;46.452;16.994;2023-04-25T04:23:07;10.13;;;3.67;;
75628;SDS011;64213;46.452;16.994;2023-04-25T04:26:09;10.75;;;4.12;;
75628;SDS011;64213;46.452;16.994;2023-04-25T04:29:13;10.13;;;4.20;;
75628;SDS011;64213;46.452;16.994;2023-04-25T04:32:22;13.80;;;4.70;;
75628;SDS011;64213;46.452;16.994;2023-04-25T04:35:25;11.50;;;4.23;;
75628;SDS011;64213;46.452;16.994;2023-04-25T04:38:27;10.90;;;4.25;;
75628;SDS011;64213;46.452;16.994;2023-04-25T04:41:29;10.70;;;4.60;;
75628;SDS011;64213;46.452;16.994;2023-04-25T04:44:31;11.65;;;4.18;;
75628;SDS011;64213;46.452;16.994;2023-04-25T04:47:37;11.40;;;4.50;;
75628;SDS011;64213;46.452;16.994;2023-04-25T04:50:42;12.00;;;4.50;;
75628;SDS011;64213;46.452;16.994;2023-04-25T04:53:47;12.40;;;4.90;;
75628;SDS011;64213;46.452;16.994;2023-04-25T04:56:49;11.93;;;4.85;;
75628;SDS011;64213;46.452;16.994;2023-04-25T04:59:53;12.13;;;4.80;;
75628;SDS011;64213;46.452;16.994;2023-04-25T05:02:56;12.73;;;4.43;;
75628;SDS011;64213;46.452;16.994;2023-04-25T05:05:58;10.47;;;4.00;;
75628;SDS011;64213;46.452;16.994;2023-04-25T05:09:00;11.35;;;4.37;;
75628;SDS011;64213;46.452;16.994;2023-04-25T05:12:02;11.80;;;5.15;;
75628;SDS011;64213;46.452;16.994;2023-04-25T05:15:04;11.43;;;5.03;;
75628;SDS011;64213;46.452;16.994;2023-04-25T05:18:07;12.77;;;5.30;;
75628;SDS011;64213;46.452;16.994;2023-04-25T05:21:09;12.27;;;4.67;;
75628;SDS011;64213;46.452;16.994;2023-04-25T05:24:12;11.70;;;4.47;;
75628;SDS011;64213;46.452;16.994;2023-04-25T05:27:16;9.88;;;4.55;;
75628;SDS011;64213;46.452;16.994;2023-04-25T05:30:18;8.35;;;2.97;;
75628;SDS011;64213;46.452;16.994;2023-04-25T05:33:20;8.88;;;3.28;;
75628;SDS011;64213;46.452;16.994;2023-04-25T05:36:22;8.23;;;2.87;;
75628;SDS011;64213;46.452;16.994;2023-04-25T05:39:24;8.07;;;2.78;;
75628;SDS011;64213;46.452;16.994;2023-04-25T05:42:26;7.30;;;2.20;;
75628;SDS011;64213;46.452;16.994;2023-04-25T05:45:28;7.25;;;2.15;;
75628;SDS011;64213;46.452;16.994;2023-04-25T05:48:31;7.28;;;1.90;;
75628;SDS011;64213;46.452;16.994;2023-04-25T05:51:33;6.93;;;2.07;;
75628;SDS011;64213;46.452;16.994;2023-04-25T05:54:35;7.07;;;1.95;;
75628;SDS011;64213;46.452;16.994;2023-04-25T05:57:37;6.90;;;2.00;;
75628;SDS011;64213;46.452;16.994;2023-04-25T06:00:42;7.35;;;1.65;;
75628;SDS011;64213;46.452;16.994;2023-04-25T06:03:44;7.15;;;1.80;;
75628;SDS011;64213;46.452;16.994;2023-04-25T06:06:47;7.53;;;1.80;;
75628;SDS011;64213;46.452;16.994;2023-04-25T06:09:49;7.75;;;1.25;;
75628;SDS011;64213;46.452;16.994;2023-04-25T06:12:51;5.57;;;1.20;;
75628;SDS011;64213;46.452;16.994;2023-04-25T06:15:53;6.80;;;1.85;;
75628;SDS011;64213;46.452;16.994;2023-04-25T06:18:55;6.53;;;1.37;;
75628;SDS011;64213;46.452;16.994;2023-04-25T06:21:57;7.67;;;1.10;;
75628;SDS011;64213;46.452;16.994;2023-04-25T06:24:59;5.45;;;1.23;;
75628;SDS011;64213;46.452;16.994;2023-04-25T06:28:01;6.25;;;1.40;;
75628;SDS011;64213;46.452;16.994;2023-04-25T06:31:03;6.43;;;0.90;;
75628;SDS011;64213;46.452;16.994;2023-04-25T06:34:06;7.35;;;1.30;;
75628;SDS011;64213;46.452;16.994;2023-04-25T06:37:08;5.70;;;1.10;;
75628;SDS011;64213;46.452;16.994;2023-04-25T06:40:10;4.12;;;0.70;;
75628;SDS011;64213;46.452;16.994;2023-04-25T06:43:12;7.07;;;1.33;;
75628;SDS011;64213;46.452;16.994;2023-04-25T06:46:14;5.53;;;1.12;;
75628;SDS011;64213;46.452;16.994;2023-04-25T06:49:16;5.72;;;1.25;;
75628;SDS011;64213;46.452;16.994;2023-04-25T06:52:18;4.80;;;1.20;;
75628;SDS011;64213;46.452;16.994;2023-04-25T06:55:20;5.10;;;1.27;;
75628;SDS011;64213;46.452;16.994;2023-04-25T06:58:23;5.05;;;1.30;;
75628;SDS011;64213;46.452;16.994;2023-04-25T07:01:25;4.95;;;1.30;;
75628;SDS011;64213;46.452;16.994;2023-04-25T07:04:27;6.57;;;1.60;;
75628;SDS011;64213;46.452;16.994;2023-04-25T07:07:30;5.43;;;1.30;;
75628;SDS011;64213;46.452;16.994;2023-04-25T07:10:32;6.03;;;1.60;;
75628;SDS011;64213;46.452;16.994;2023-04-25T07:13:34;6.05;;;1.73;;
75628;SDS011;64213;46.452;16.994;2023-04-25T07:16:36;6.95;;;1.60;;
75628;SDS011;64213;46.452;16.994;2023-04-25T07:19:38;5.50;;;1.33;;
75628;SDS011;64213;46.452;16.994;2023-04-25T07:22:42;4.43;;;1.00;;
75628;SDS011;64213;46.452;16.994;2023-04-25T07:25:44;6.70;;;1.55;;
75628;SDS011;64213;46.452;16.994;2023-04-25T07:28:46;5.50;;;1.23;;
75628;SDS011;64213;46.452;16.994;2023-04-25T07:31:52;5.05;;;1.15;;
75628;SDS011;64213;46.452;16.994;2023-04-25T07:34:55;5.47;;;1.15;;
75628;SDS011;64213;46.452;16.994;2023-04-25T07:37:57;6.33;;;1.20;;
75628;SDS011;64213;46.452;16.994;2023-04-25T07:41:01;5.60;;;1.45;;
75628;SDS011;64213;46.452;16.994;2023-04-25T07:44:03;5.68;;;1.40;;
75628;SDS011;64213;46.452;16.994;2023-04-25T07:47:05;4.78;;;1.42;;
75628;SDS011;64213;46.452;16.994;2023-04-25T07:50:11;4.82;;;1.20;;
75628;SDS011;64213;46.452;16.994;2023-04-25T07:53:13;6.50;;;1.37;;
75628;SDS011;64213;46.452;16.994;2023-04-25T07:56:15;6.93;;;1.25;;
75628;SDS011;64213;46.452;16.994;2023-04-25T07:59:17;5.82;;;1.62;;
75628;SDS011;64213;46.452;16.994;2023-04-25T08:02:19;4.65;;;1.25;;
75628;SDS011;64213;46.452;16.994;2023-04-25T08:05:22;5.82;;;1.58;;
75628;SDS011;64213;46.452;16.994;2023-04-25T08:08:24;5.10;;;1.30;;
75628;SDS011;64213;46.452;16.994;2023-04-25T08:11:26;6.50;;;1.67;;
75628;SDS011;64213;46.452;16.994;2023-04-25T08:14:28;5.05;;;1.40;;
75628;SDS011;64213;46.452;16.994;2023-04-25T08:17:37;5.35;;;1.37;;
75628;SDS011;64213;46.452;16.994;2023-04-25T08:20:40;4.82;;;1.42;;
75628;SDS011;64213;46.452;16.994;2023-04-25T08:23:42;6.60;;;1.30;;
75628;SDS011;64213;46.452;16.994;2023-04-25T08:26:44;5.12;;;1.23;;
75628;SDS011;64213;46.452;16.994;2023-04-25T08:29:46;6.40;;;1.70;;
75628;SDS011;64213;46.452;16.994;2023-04-25T08:32:48;5.68;;;1.73;;
75628;SDS011;64213;46.452;16.994;2023-04-25T08:35:51;5.50;;;1.50;;
75628;SDS011;64213;46.452;16.994;2023-04-25T08:38:54;6.23;;;1.33;;
75628;SDS011;64213;46.452;16.994;2023-04-25T08:41:56;4.53;;;1.20;;
75628;SDS011;64213;46.452;16.994;2023-04-25T08:44:58;5.03;;;1.33;;
75628;SDS011;64213;46.452;16.994;2023-04-25T08:48:06;4.95;;;1.40;;
75628;SDS011;64213;46.452;16.994;2023-04-25T08:51:17;5.40;;;1.50;;
75628;SDS011;64213;46.452;16.994;2023-04-25T08:54:24;5.50;;;1.40;;
75628;SDS011;64213;46.452;16.994;2023-04-25T08:57:37;4.93;;;1.30;;
75628;SDS011;64213;46.452;16.994;2023-04-25T09:00:40;5.68;;;1.70;;
75628;SDS011;64213;46.452;16.994;2023-04-25T09:03:43;9.07;;;1.50;;
75628;SDS011;64213;46.452;16.994;2023-04-25T09:06:47;5.75;;;1.45;;
75628;SDS011;64213;46.452;16.994;2023-04-25T09:09:49;5.43;;;1.40;;
75628;SDS011;64213;46.452;16.994;2023-04-25T09:16:10;5.80;;;1.58;;
75628;SDS011;64213;46.452;16.994;2023-04-25T09:22:45;7.03;;;1.20;;
75628;SDS011;64213;46.452;16.994;2023-04-25T09:25:48;7.07;;;1.27;;
75628;SDS011;64213;46.452;16.994;2023-04-25T09:29:05;6.97;;;1.10;;
75628;SDS011;64213;46.452;16.994;2023-04-25T09:32:15;5.10;;;1.30;;
75628;SDS011;64213;46.452;16.994;2023-04-25T09:35:24;5.65;;;1.50;;
75628;SDS011;64213;46.452;16.994;2023-04-25T09:38:28;5.22;;;1.45;;
75628;SDS011;64213;46.452;16.994;2023-04-25T09:41:32;7.63;;;1.50;;
75628;SDS011;64213;46.452;16.994;2023-04-25T09:44:41;5.55;;;1.42;;
75628;SDS011;64213;46.452;16.994;2023-04-25T09:47:45;8.45;;;2.37;;
75628;SDS011;64213;46.452;16.994;2023-04-25T09:54:05;5.80;;;1.55;;
75628;SDS011;64213;46.452;16.994;2023-04-25T09:57:25;5.37;;;1.40;;
75628;SDS011;64213;46.452;16.994;2023-04-25T10:00:27;4.55;;;1.10;;
75628;SDS011;64213;46.452;16.994;2023-04-25T10:03:30;6.07;;;1.30;;
75628;SDS011;64213;46.452;16.994;2023-04-25T10:06:34;5.85;;;1.23;;
75628;SDS011;64213;46.452;16.994;2023-04-25T10:09:38;5.35;;;1.35;;
75628;SDS011;64213;46.452;16.994;2023-04-25T10:12:41;4.83;;;1.10;;
75628;SDS011;64213;46.452;16.994;2023-04-25T10:15:45;6.50;;;1.30;;
75628;SDS011;64213;46.452;16.994;2023-04-25T10:18:48;5.40;;;1.25;;
75628;SDS011;64213;46.452;16.994;2023-04-25T10:21:54;4.62;;;1.30;;
75628;SDS011;64213;46.452;16.994;2023-04-25T10:25:05;4.50;;;1.10;;
75628;SDS011;64213;46.452;16.994;2023-04-25T10:28:08;3.60;;;0.80;;
75628;SDS011;64213;46.452;16.994;2023-04-25T10:31:10;4.68;;;1.10;;
75628;SDS011;64213;46.452;16.994;2023-04-25T10:34:12;5.45;;;1.10;;
75628;SDS011;64213;46.452;16.994;2023-04-25T10:37:15;7.18;;;1.20;;
75628;SDS011;64213;46.452;16.994;2023-04-25T10:40:21;5.45;;;1.10;;
75628;SDS011;64213;46.452;16.994;2023-04-25T10:43:40;6.23;;;1.00;;
75628;SDS011;64213;46.452;16.994;2023-04-25T10:46:44;4.97;;;1.00;;
75628;SDS011;64213;46.452;16.994;2023-04-25T10:49:48;6.47;;;1.20;;
75628;SDS011;64213;46.452;16.994;2023-04-25T10:52:52;4.87;;;1.12;;
75628;SDS011;64213;46.452;16.994;2023-04-25T10:55:55;4.20;;;1.05;;
75628;SDS011;64213;46.452;16.994;2023-04-25T11:02:21;5.12;;;1.00;;
75628;SDS011;64213;46.452;16.994;2023-04-25T11:05:30;5.37;;;1.12;;
75628;SDS011;64213;46.452;16.994;2023-04-25T11:08:47;5.35;;;0.90;;
75628;SDS011;64213;46.452;16.994;2023-04-25T11:11:55;4.72;;;1.20;;
75628;SDS011;64213;46.452;16.994;2023-04-25T11:15:02;4.57;;;0.90;;
75628;SDS011;64213;46.452;16.994;2023-04-25T11:18:05;5.05;;;0.90;;
75628;SDS011;64213;46.452;16.994;2023-04-25T11:21:10;4.95;;;1.10;;
75628;SDS011;64213;46.452;16.994;2023-04-25T11:24:13;4.32;;;0.93;;
75628;SDS011;64213;46.452;16.994;2023-04-25T11:27:15;4.93;;;1.20;;
75628;SDS011;64213;46.452;16.994;2023-04-25T11:30:18;4.63;;;1.10;;
75628;SDS011;64213;46.452;16.994;2023-04-25T11:33:25;4.62;;;0.98;;
75628;SDS011;64213;46.452;16.994;2023-04-25T11:36:29;4.40;;;1.15;;
75628;SDS011;64213;46.452;16.994;2023-04-25T11:39:32;4.80;;;1.33;;
75628;SDS011;64213;46.452;16.994;2023-04-25T11:42:36;4.30;;;0.95;;
75628;SDS011;64213;46.452;16.994;2023-04-25T11:45:39;5.13;;;1.17;;
75628;SDS011;64213;46.452;16.994;2023-04-25T11:48:42;4.37;;;1.00;;
75628;SDS011;64213;46.452;16.994;2023-04-25T11:51:45;5.40;;;1.00;;
75628;SDS011;64213;46.452;16.994;2023-04-25T11:54:48;4.45;;;1.15;;
75628;SDS011;64213;46.452;16.994;2023-04-25T11:57:50;4.00;;;1.20;;
75628;SDS011;64213;46.452;16.994;2023-04-25T12:00:53;4.30;;;1.10;;
75628;SDS011;64213;46.452;16.994;2023-04-25T12:03:56;5.35;;;1.00;;
75628;SDS011;64213;46.452;16.994;2023-04-25T12:06:59;4.87;;;1.20;;
75628;SDS011;64213;46.452;16.994;2023-04-25T12:10:13;4.72;;;1.20;;
75628;SDS011;64213;46.452;16.994;2023-04-25T12:13:18;5.22;;;1.50;;
75628;SDS011;64213;46.452;16.994;2023-04-25T12:16:21;4.67;;;1.40;;
75628;SDS011;64213;46.452;16.994;2023-04-25T12:19:23;9.23;;;1.20;;
75628;SDS011;64213;46.452;16.994;2023-04-25T12:22:26;4.80;;;1.60;;
75628;SDS011;64213;46.452;16.994;2023-04-25T12:25:37;4.43;;;1.30;;
75628;SDS011;64213;46.452;16.994;2023-04-25T12:28:44;4.15;;;1.10;;
75628;SDS011;64213;46.452;16.994;2023-04-25T12:31:49;3.73;;;1.00;;
75628;SDS011;64213;46.452;16.994;2023-04-25T12:34:53;5.32;;;1.37;;
75628;SDS011;64213;46.452;16.994;2023-04-25T12:37:55;5.60;;;1.30;;
75628;SDS011;64213;46.452;16.994;2023-04-25T12:40:57;8.20;;;1.30;;
75628;SDS011;64213;46.452;16.994;2023-04-25T12:44:00;7.03;;;1.60;;
75628;SDS011;64213;46.452;16.994;2023-04-25T12:47:02;4.10;;;1.20;;
75628;SDS011;64213;46.452;16.994;2023-04-25T12:50:05;4.75;;;0.95;;
75628;SDS011;64213;46.452;16.994;2023-04-25T12:53:07;5.43;;;1.27;;
75628;SDS011;64213;46.452;16.994;2023-04-25T12:56:10;4.78;;;1.23;;
75628;SDS011;64213;46.452;16.994;2023-04-25T12:59:12;4.97;;;1.35;;
75628;SDS011;64213;46.452;16.994;2023-04-25T13:02:14;5.47;;;1.40;;
75628;SDS011;64213;46.452;16.994;2023-04-25T13:05:16;6.20;;;1.30;;
75628;SDS011;64213;46.452;16.994;2023-04-25T13:08:18;6.05;;;1.10;;
75628;SDS011;64213;46.452;16.994;2023-04-25T13:11:21;6.78;;;1.10;;
75628;SDS011;64213;46.452;16.994;2023-04-25T13:14:22;4.37;;;1.15;;
75628;SDS011;64213;46.452;16.994;2023-04-25T13:17:24;4.40;;;1.10;;
75628;SDS011;64213;46.452;16.994;2023-04-25T13:20:29;4.35;;;1.23;;
75628;SDS011;64213;46.452;16.994;2023-04-25T13:23:31;5.32;;;1.35;;
75628;SDS011;64213;46.452;16.994;2023-04-25T13:26:33;4.82;;;1.25;;
75628;SDS011;64213;46.452;16.994;2023-04-25T13:29:35;4.75;;;1.30;;
75628;SDS011;64213;46.452;16.994;2023-04-25T13:32:37;3.80;;;0.90;;
75628;SDS011;64213;46.452;16.994;2023-04-25T13:35:40;5.18;;;1.10;;
75628;SDS011;64213;46.452;16.994;2023-04-25T13:38:43;4.30;;;1.05;;
75628;SDS011;64213;46.452;16.994;2023-04-25T13:41:46;6.03;;;1.10;;
75628;SDS011;64213;46.452;16.994;2023-04-25T13:44:49;5.32;;;1.15;;
75628;SDS011;64213;46.452;16.994;2023-04-25T13:47:51;19.67;;;10.57;;
75628;SDS011;64213;46.452;16.994;2023-04-25T13:50:53;4.45;;;0.95;;
75628;SDS011;64213;46.452;16.994;2023-04-25T13:53:55;4.53;;;1.10;;
75628;SDS011;64213;46.452;16.994;2023-04-25T13:56:58;6.62;;;1.12;;
75628;SDS011;64213;46.452;16.994;2023-04-25T14:00:00;4.43;;;1.08;;
75628;SDS011;64213;46.452;16.994;2023-04-25T14:03:08;4.90;;;0.90;;
75628;SDS011;64213;46.452;16.994;2023-04-25T14:06:10;4.68;;;1.05;;
75628;SDS011;64213;46.452;16.994;2023-04-25T14:09:14;5.03;;;0.80;;
75628;SDS011;64213;46.452;16.994;2023-04-25T14:12:17;4.62;;;0.90;;
75628;SDS011;64213;46.452;16.994;2023-04-25T14:15:19;5.70;;;1.02;;
75628;SDS011;64213;46.452;16.994;2023-04-25T14:18:21;6.87;;;1.53;;
75628;SDS011;64213;46.452;16.994;2023-04-25T14:21:24;4.15;;;0.73;;
75628;SDS011;64213;46.452;16.994;2023-04-25T14:24:29;4.47;;;1.08;;
75628;SDS011;64213;46.452;16.994;2023-04-25T14:27:31;5.57;;;1.15;;
75628;SDS011;64213;46.452;16.994;2023-04-25T14:30:33;4.20;;;0.90;;
75628;SDS011;64213;46.452;16.994;2023-04-25T14:33:36;3.87;;;1.00;;
75628;SDS011;64213;46.452;16.994;2023-04-25T14:36:41;5.25;;;0.90;;
75628;SDS011;64213;46.452;16.994;2023-04-25T14:39:43;4.90;;;1.20;;
75628;SDS011;64213;46.452;16.994;2023-04-25T14:42:47;4.05;;;0.93;;
75628;SDS011;64213;46.452;16.994;2023-04-25T14:45:48;3.80;;;0.80;;
75628;SDS011;64213;46.452;16.994;2023-04-25T14:48:51;6.33;;;1.50;;
75628;SDS011;64213;46.452;16.994;2023-04-25T14:51:53;5.35;;;1.12;;
75628;SDS011;64213;46.452;16.994;2023-04-25T14:54:55;4.70;;;1.12;;
75628;SDS011;64213;46.452;16.994;2023-04-25T14:57:57;5.18;;;1.10;;
75628;SDS011;64213;46.452;16.994;2023-04-25T15:01:00;5.72;;;1.00;;
75628;SDS011;64213;46.452;16.994;2023-04-25T15:04:03;4.67;;;0.90;;
75628;SDS011;64213;46.452;16.994;2023-04-25T15:07:05;6.10;;;1.00;;
75628;SDS011;64213;46.452;16.994;2023-04-25T15:10:07;7.35;;;2.10;;
75628;SDS011;64213;46.452;16.994;2023-04-25T15:13:15;6.93;;;1.37;;
75628;SDS011;64213;46.452;16.994;2023-04-25T15:16:19;6.87;;;2.20;;
75628;SDS011;64213;46.452;16.994;2023-04-25T15:19:22;8.57;;;3.30;;
75628;SDS011;64213;46.452;16.994;2023-04-25T15:22:24;5.25;;;1.30;;
75628;SDS011;64213;46.452;16.994;2023-04-25T15:25:26;5.35;;;1.67;;
75628;SDS011;64213;46.452;16.994;2023-04-25T15:28:30;4.72;;;1.10;;
75628;SDS011;64213;46.452;16.994;2023-04-25T15:31:32;4.35;;;1.08;;
75628;SDS011;64213;46.452;16.994;2023-04-25T15:34:35;4.97;;;1.00;;
75628;SDS011;64213;46.452;16.994;2023-04-25T15:37:37;6.45;;;1.05;;
75628;SDS011;64213;46.452;16.994;2023-04-25T15:40:40;4.62;;;1.00;;
75628;SDS011;64213;46.452;16.994;2023-04-25T15:43:42;4.80;;;1.10;;
75628;SDS011;64213;46.452;16.994;2023-04-25T15:46:44;4.68;;;1.40;;
75628;SDS011;64213;46.452;16.994;2023-04-25T15:49:47;5.33;;;1.10;;
75628;SDS011;64213;46.452;16.994;2023-04-25T15:52:49;5.60;;;1.40;;
75628;SDS011;64213;46.452;16.994;2023-04-25T15:55:52;5.55;;;1.27;;
75628;SDS011;64213;46.452;16.994;2023-04-25T15:58:55;6.40;;;0.95;;
75628;SDS011;64213;46.452;16.994;2023-04-25T16:01:57;5.75;;;1.20;;
75628;SDS011;64213;46.452;16.994;2023-04-25T16:04:59;4.50;;;0.90;;
75628;SDS011;64213;46.452;16.994;2023-04-25T16:08:02;4.32;;;0.90;;
75628;SDS011;64213;46.452;16.994;2023-04-25T16:11:05;4.60;;;1.05;;
75628;SDS011;64213;46.452;16.994;2023-04-25T16:14:07;4.72;;;1.20;;
75628;SDS011;64213;46.452;16.994;2023-04-25T16:17:09;5.03;;;1.00;;
75628;SDS011;64213;46.452;16.994;2023-04-25T16:20:12;6.50;;;0.90;;
75628;SDS011;64213;46.452;16.994;2023-04-25T16:23:14;5.20;;;1.10;;
75628;SDS011;64213;46.452;16.994;2023-04-25T16:26:16;4.80;;;1.00;;
75628;SDS011;64213;46.452;16.994;2023-04-25T16:29:18;5.15;;;1.10;;
75628;SDS011;64213;46.452;16.994;2023-04-25T16:32:20;4.30;;;0.90;;
75628;SDS011;64213;46.452;16.994;2023-04-25T16:35:22;5.33;;;1.10;;
75628;SDS011;64213;46.452;16.994;2023-04-25T16:38:25;5.40;;;1.10;;
75628;SDS011;64213;46.452;16.994;2023-04-25T16:41:27;4.80;;;0.98;;
75628;SDS011;64213;46.452;16.994;2023-04-25T16:44:29;5.28;;;1.12;;
75628;SDS011;64213;46.452;16.994;2023-04-25T16:47:31;2.42;;;0.62;;
75628;SDS011;64213;46.452;16.994;2023-04-25T16:50:34;5.00;;;1.20;;
75628;SDS011;64213;46.452;16.994;2023-04-25T16:53:36;4.18;;;0.70;;
75628;SDS011;64213;46.452;16.994;2023-04-25T16:56:38;4.80;;;0.90;;
75628;SDS011;64213;46.452;16.994;2023-04-25T16:59:40;5.93;;;1.10;;
75628;SDS011;64213;46.452;16.994;2023-04-25T17:02:42;5.28;;;1.30;;
75628;SDS011;64213;46.452;16.994;2023-04-25T17:05:48;6.27;;;1.13;;
75628;SDS011;64213;46.452;16.994;2023-04-25T17:08:51;5.57;;;1.20;;
75628;SDS011;64213;46.452;16.994;2023-04-25T17:11:54;6.62;;;1.15;;
75628;SDS011;64213;46.452;16.994;2023-04-25T17:14:56;6.28;;;1.20;;
75628;SDS011;64213;46.452;16.994;2023-04-25T17:18:00;6.03;;;1.50;;
75628;SDS011;64213;46.452;16.994;2023-04-25T17:21:05;4.33;;;1.00;;
75628;SDS011;64213;46.452;16.994;2023-04-25T17:24:07;4.25;;;0.90;;
75628;SDS011;64213;46.452;16.994;2023-04-25T17:27:10;7.47;;;1.08;;
75628;SDS011;64213;46.452;16.994;2023-04-25T17:30:14;6.85;;;1.30;;
75628;SDS011;64213;46.452;16.994;2023-04-25T17:33:17;4.93;;;0.98;;
75628;SDS011;64213;46.452;16.994;2023-04-25T17:36:19;5.57;;;1.10;;
75628;SDS011;64213;46.452;16.994;2023-04-25T17:39:22;4.25;;;0.90;;
75628;SDS011;64213;46.452;16.994;2023-04-25T17:42:24;5.35;;;1.17;;
75628;SDS011;64213;46.452;16.994;2023-04-25T17:45:26;4.43;;;0.88;;
75628;SDS011;64213;46.452;16.994;2023-04-25T17:48:29;4.05;;;0.88;;
75628;SDS011;64213;46.452;16.994;2023-04-25T17:51:32;6.30;;;1.00;;
75628;SDS011;64213;46.452;16.994;2023-04-25T17:54:35;3.55;;;0.70;;
75628;SDS011;64213;46.452;16.994;2023-04-25T17:57:39;4.72;;;0.98;;
75628;SDS011;64213;46.452;16.994;2023-04-25T18:00:41;4.28;;;1.08;;
75628;SDS011;64213;46.452;16.994;2023-04-25T18:03:44;5.95;;;1.40;;
75628;SDS011;64213;46.452;16.994;2023-04-25T18:06:50;5.40;;;1.13;;
75628;SDS011;64213;46.452;16.994;2023-04-25T18:09:53;6.10;;;1.52;;
75628;SDS011;64213;46.452;16.994;2023-04-25T18:12:55;9.75;;;1.42;;
75628;SDS011;64213;46.452;16.994;2023-04-25T18:15:57;7.57;;;1.40;;
75628;SDS011;64213;46.452;16.994;2023-04-25T18:18:59;5.90;;;1.17;;